Time;durP1;ratioP1;P1;durP2;ratioP2;P2;SDS_P1;SDS_P2;PMS_P1;PMS_P2;Temp;Humidity;BMP_temperature;BMP_pressure;BME280_temperature;BME280_humidity;BME280_pressure;Samples;Min_cycle;Max_cycle;Signal;HPM_P1;HPM_P2
2021/06/24 08:15:38;;;;;;;3.72;1.23;;;;;;;25.51;43.28;101341.53;5068188;27;20423;-76
2021/06/24 08:18:04;;;;;;;5.93;1.60;;;;;;;26.34;40.53;101337.66;5047447;28;20132;-86
2021/06/24 08:20:29;;;;;;;6.93;1.58;;;;;;;27.09;39.20;101333.31;5041442;28;20048;-86
2021/06/24 08:22:55;;;;;;;6.22;1.52;;;;;;;27.63;38.19;101339.16;5020730;28;20025;-85
2021/06/24 08:25:21;;;;;;;6.10;1.35;;;;;;;28.16;36.13;101330.72;5037419;28;20021;-85
2021/06/24 08:27:49;;;;;;;6.70;1.58;;;;;;;28.64;35.11;101339.75;5039237;28;20492;-85
2021/06/24 08:30:15;;;;;;;7.28;1.65;;;;;;;28.98;34.38;101332.13;5035814;28;20025;-85
2021/06/24 08:32:40;;;;;;;3.78;1.40;;;;;;;29.28;34.47;101322.34;5035808;28;20087;-83
2021/06/24 08:35:08;;;;;;;3.40;1.15;;;;;;;29.58;33.72;101324.38;5040640;28;20033;-85
2021/06/24 08:37:34;;;;;;;4.38;1.30;;;;;;;29.78;33.19;101327.41;5043633;28;20071;-84
2021/06/24 08:39:59;;;;;;;5.15;1.45;;;;;;;29.95;32.78;101323.56;5028107;28;20033;-84
2021/06/24 08:42:24;;;;;;;4.20;1.00;;;;;;;30.04;33.44;101319.72;5029874;28;20053;-85
2021/06/24 08:44:50;;;;;;;5.82;1.50;;;;;;;30.15;32.59;101321.97;5038730;28;20425;-84
2021/06/24 08:47:16;;;;;;;3.72;1.67;;;;;;;30.29;32.19;101314.06;5039134;28;20511;-84
2021/06/24 08:49:42;;;;;;;4.88;1.08;;;;;;;30.29;32.28;101314.94;5037700;28;20368;-86
2021/06/24 08:52:08;;;;;;;4.72;1.50;;;;;;;30.30;31.99;101311.19;5036429;28;20025;-84
2021/06/24 08:54:33;;;;;;;3.58;1.30;;;;;;;30.41;32.47;101308.00;5031872;28;20029;-84
2021/06/24 08:56:59;;;;;;;5.10;1.48;;;;;;;30.36;31.84;101313.16;5037627;28;20502;-85
2021/06/24 08:59:24;;;;;;;4.82;1.10;;;;;;;30.37;32.59;101314.84;5041119;28;20029;-83
2021/06/24 09:01:57;;;;;;;3.40;1.30;;;;;;;30.43;32.01;101305.97;5038131;28;20360;-84
2021/06/24 09:04:24;;;;;;;4.50;1.10;;;;;;;30.46;32.24;101310.16;5037750;28;20037;-83
2021/06/24 09:06:50;;;;;;;4.07;1.65;;;;;;;30.34;31.77;101308.94;5029270;28;20541;-83
2021/06/24 09:09:32;;;;;;;4.63;1.20;;;;;;;30.19;32.46;101300.81;5032912;28;20120;-84
2021/06/24 09:12:05;;;;;;;3.70;1.50;;;;;;;30.01;31.92;101305.69;5038683;28;20032;-88
2021/06/24 09:14:39;;;;;;;4.63;1.08;;;;;;;29.69;32.50;101305.00;5038818;28;20041;-84
2021/06/24 09:17:04;;;;;;;5.07;1.48;;;;;;;29.38;33.27;101305.88;5022272;28;20029;-85
2021/06/24 09:19:30;;;;;;;3.90;1.27;;;;;;;29.03;34.06;101307.31;5041455;28;20500;-84
2021/06/24 09:22:01;;;;;;;2.85;1.40;;;;;;;28.74;34.14;101319.56;5056012;28;20029;-85
2021/06/24 09:24:36;;;;;;;4.13;1.40;;;;;;;28.39;34.95;101314.66;5032272;28;20017;-85
2021/06/24 09:27:23;;;;;;;3.75;1.35;;;;;;;27.99;35.87;101306.41;5020127;28;20377;-80
2021/06/24 09:29:59;;;;;;;2.75;1.27;;;;;;;27.70;37.57;101308.78;5024190;28;20033;-79
2021/06/24 09:32:36;;;;;;;2.85;1.27;;;;;;;27.44;38.64;101303.53;5020418;28;20034;-79
2021/06/24 09:35:06;;;;;;;3.22;1.23;;;;;;;27.35;38.92;101299.97;5003163;28;20017;-80
2021/06/24 09:38:02;;;;;;;2.80;1.48;;;;;;;27.59;39.71;101312.66;5032908;28;20032;-79
2021/06/24 09:40:53;;;;;;;7.13;1.50;;;;;;;28.25;36.95;101313.47;5018543;28;20726;-79
2021/06/24 09:43:28;;;;;;;4.28;1.38;;;;;;;28.94;35.11;101308.34;5015038;28;20054;-76
2021/06/24 09:46:14;;;;;;;4.05;1.25;;;;;;;29.21;35.06;101302.44;5014665;28;20469;-78
2021/06/24 09:48:44;;;;;;;2.63;1.10;;;;;;;29.46;34.51;101300.38;5008095;28;20025;-78
2021/06/24 09:51:24;;;;;;;5.65;1.50;;;;;;;29.77;33.33;101304.06;5016524;28;20018;-78
2021/06/24 09:53:52;;;;;;;3.10;1.13;;;;;;;30.17;33.66;101300.13;5024718;28;20503;-78
2021/06/24 09:56:40;;;;;;;3.72;1.05;;;;;;;30.45;31.97;101303.03;5019467;28;20034;-78
2021/06/24 09:59:07;;;;;;;3.40;1.10;;;;;;;30.72;31.03;101306.09;5022216;28;20400;-78
2021/06/24 10:01:43;;;;;;;3.00;1.00;;;;;;;31.00;31.77;101306.25;5015675;28;20137;-78
2021/06/24 10:04:28;;;;;;;3.35;0.90;;;;;;;31.01;30.99;101305.22;5016218;28;20020;-78
2021/06/24 10:06:55;;;;;;;4.10;1.15;;;;;;;30.81;32.03;101297.72;5018782;28;20040;-78
2021/06/24 10:09:22;;;;;;;2.58;0.90;;;;;;;30.66;31.45;101294.13;5016759;28;20034;-78
2021/06/24 10:11:48;;;;;;;2.38;1.02;;;;;;;30.57;31.53;101295.28;5014158;28;20036;-78
2021/06/24 10:14:16;;;;;;;4.72;1.67;;;;;;;30.36;32.83;101290.59;5016942;28;20037;-78
2021/06/24 10:16:50;;;;;;;3.50;0.98;;;;;;;30.19;32.40;101298.94;5016169;28;20029;-78
2021/06/24 10:19:17;;;;;;;4.03;1.00;;;;;;;30.06;32.15;101298.72;5021470;28;20049;-78
2021/06/24 10:21:43;;;;;;;5.38;1.10;;;;;;;29.93;33.24;101293.09;5019730;28;20048;-78
2021/06/24 10:24:14;;;;;;;2.70;1.00;;;;;;;29.73;33.83;101304.44;5017626;28;20618;-78
